Peak, South Carolina
Current Conditions -  °F | °C
As of 3:15 AM on Sunday 21 Dec 2014 (Local Time) from KFDW Reporting Station
Overcast Overcast  
Wind Chill: 38°   Ceiling: 1800
Heat Index: 41°   Visibility: 7mi
Dew Point: 39°   Wind: 5mph
Humidity: 93%   Direction: 40°NE
Pressure: 30.23"   Gusts: NA
Location:  34.24°N, 81.32°W
Report Text: KFDW 210815Z AUTO 04004KT 7SM OVC018 05/04 A3023 RMK AO1
Loading
Personal Weather Stations






























Interactive Weather Map New forecast layout! Learn more

10-Day Weather Forecast

Advertisements
Track Severe Weather on mobile